createdAt,value
2023-04-13T00:00:48.997Z,17.00
2023-04-13T00:03:17.494Z,17.27
2023-04-13T00:05:53.098Z,17.30
2023-04-13T00:08:22.885Z,17.17
2023-04-13T00:10:51.160Z,16.33
2023-04-13T00:13:18.887Z,16.15
2023-04-13T00:15:46.326Z,16.58
2023-04-13T00:18:13.669Z,16.35
2023-04-13T00:20:44.273Z,15.73
2023-04-13T00:23:12.386Z,17.77
2023-04-13T00:25:39.840Z,15.23
2023-04-13T00:28:07.878Z,17.38
2023-04-13T00:30:35.368Z,17.10
2023-04-13T00:33:05.219Z,18.00
2023-04-13T00:35:33.122Z,17.13
2023-04-13T00:38:03.118Z,16.25
2023-04-13T00:40:30.934Z,17.00
2023-04-13T00:42:58.458Z,15.88
2023-04-13T00:45:26.299Z,16.05
2023-04-13T00:47:54.099Z,15.90
2023-04-13T00:50:21.761Z,15.45
2023-04-13T00:52:49.857Z,15.90
2023-04-13T00:55:21.387Z,16.00
2023-04-13T00:57:53.089Z,15.68
2023-04-13T01:00:21.957Z,15.45
2023-04-13T01:02:50.678Z,15.05
2023-04-13T01:05:18.688Z,14.82
2023-04-13T01:08:22.240Z,15.68
2023-04-13T01:10:56.760Z,15.07
2023-04-13T01:13:52.832Z,16.27
2023-04-13T01:16:25.193Z,15.68
2023-04-13T01:18:54.067Z,14.68
2023-04-13T01:21:26.094Z,15.77
2023-04-13T01:24:29.794Z,15.85
2023-04-13T01:27:07.678Z,16.33
2023-04-13T01:29:36.450Z,15.80
2023-04-13T01:32:05.023Z,16.20
2023-04-13T01:34:33.388Z,16.88
2023-04-13T01:37:04.559Z,14.95
2023-04-13T01:39:33.337Z,15.70
2023-04-13T01:42:17.020Z,14.95
2023-04-13T01:44:45.629Z,14.65
2023-04-13T01:47:20.434Z,15.05
2023-04-13T01:50:13.355Z,15.02
2023-04-13T01:53:11.222Z,15.05
2023-04-13T01:55:43.891Z,15.63
2023-04-13T01:58:14.603Z,15.32
2023-04-13T02:00:45.499Z,14.82
2023-04-13T02:03:15.633Z,15.15
2023-04-13T02:05:43.719Z,14.48
2023-04-13T02:08:11.169Z,15.07
2023-04-13T02:10:45.422Z,13.95
2023-04-13T02:13:13.436Z,15.98
2023-04-13T02:15:42.094Z,14.93
2023-04-13T02:18:10.648Z,15.73
2023-04-13T02:20:43.512Z,15.18
2023-04-13T02:23:15.068Z,15.65
2023-04-13T02:25:47.162Z,16.13
2023-04-13T02:28:16.035Z,15.73
2023-04-13T02:30:45.677Z,16.35
2023-04-13T02:33:13.176Z,16.17
2023-04-13T02:35:40.690Z,15.63
2023-04-13T02:38:10.735Z,17.20
2023-04-13T02:40:39.055Z,15.98
2023-04-13T02:43:07.949Z,16.08
2023-04-13T02:45:40.089Z,16.98
2023-04-13T02:48:10.528Z,17.52
2023-04-13T02:50:37.953Z,18.05
2023-04-13T02:53:09.251Z,11.70
2023-04-13T02:55:39.102Z,17.45
2023-04-13T02:58:12.129Z,16.77
2023-04-13T03:00:40.085Z,18.48
2023-04-13T03:03:11.945Z,21.85
2023-04-13T03:05:44.844Z,22.48
2023-04-13T03:08:17.463Z,22.20
2023-04-13T03:11:09.484Z,20.92
2023-04-13T03:13:40.076Z,22.80
2023-04-13T03:16:08.210Z,22.45
2023-04-13T03:18:36.414Z,23.30
2023-04-13T03:21:07.775Z,22.52
2023-04-13T03:23:45.997Z,22.98
2023-04-13T03:26:15.565Z,22.15
2023-04-13T03:28:43.765Z,24.00
2023-04-13T03:31:11.619Z,23.73
2023-04-13T03:33:39.148Z,22.08
2023-04-13T03:36:08.529Z,22.10
2023-04-13T03:38:37.715Z,22.52
2023-04-13T03:41:05.688Z,22.05
2023-04-13T03:43:34.456Z,21.88
2023-04-13T03:46:07.729Z,21.33
2023-04-13T03:48:35.328Z,20.98
2023-04-13T03:51:05.565Z,20.10
2023-04-13T03:53:46.096Z,17.73
2023-04-13T03:56:13.669Z,16.50
2023-04-13T03:58:42.038Z,17.23
2023-04-13T04:01:10.835Z,16.77
2023-04-13T04:03:46.143Z,17.25
2023-04-13T04:06:14.066Z,15.55
2023-04-13T04:08:49.703Z,15.85
2023-04-13T04:11:35.079Z,15.85
2023-04-13T04:14:03.460Z,15.77
2023-04-13T04:16:31.552Z,16.67
2023-04-13T04:19:08.115Z,15.82
2023-04-13T04:21:35.965Z,16.55
2023-04-13T04:26:38.224Z,14.95
2023-04-13T04:29:08.902Z,16.55
2023-04-13T04:31:43.610Z,15.90
2023-04-13T04:34:16.718Z,15.13
2023-04-13T04:36:50.399Z,16.10
2023-04-13T04:39:22.534Z,17.40
2023-04-13T04:42:04.177Z,17.13
2023-04-13T04:44:33.584Z,18.48
2023-04-13T04:47:05.934Z,17.88
2023-04-13T04:49:39.878Z,16.70
2023-04-13T04:52:12.439Z,16.90
2023-04-13T04:54:40.912Z,16.35
2023-04-13T04:57:10.636Z,17.65
2023-04-13T04:59:40.847Z,16.80
2023-04-13T05:02:08.344Z,18.20
2023-04-13T05:04:36.568Z,18.83
2023-04-13T05:07:04.490Z,18.90
2023-04-13T05:09:38.640Z,18.98
2023-04-13T05:12:07.565Z,18.55
2023-04-13T05:14:37.173Z,18.65
2023-04-13T05:17:05.588Z,19.80
2023-04-13T05:19:39.373Z,18.38
2023-04-13T05:22:37.228Z,20.33
2023-04-13T05:25:08.144Z,21.10
2023-04-13T05:27:35.884Z,20.77
2023-04-13T05:30:05.446Z,21.67
2023-04-13T05:32:35.045Z,20.73
2023-04-13T05:35:04.415Z,19.50
2023-04-13T05:37:32.599Z,20.13
2023-04-13T05:40:00.981Z,20.48
2023-04-13T05:42:32.400Z,15.97
2023-04-13T05:45:00.935Z,20.75
2023-04-13T05:47:29.243Z,21.30
2023-04-13T05:50:01.808Z,21.60
2023-04-13T05:52:30.077Z,20.85
2023-04-13T05:54:58.129Z,20.70
2023-04-13T05:57:26.175Z,21.55
2023-04-13T05:59:55.183Z,18.80
2023-04-13T06:02:26.956Z,20.38
2023-04-13T06:04:55.198Z,22.20
2023-04-13T06:07:23.763Z,19.15
2023-04-13T06:09:51.726Z,20.23
2023-04-13T06:12:19.439Z,20.40
2023-04-13T06:14:47.665Z,21.88
2023-04-13T06:17:15.085Z,21.02
2023-04-13T06:19:42.625Z,20.77
2023-04-13T06:22:10.153Z,21.02
2023-04-13T06:24:40.013Z,21.02
2023-04-13T06:27:10.136Z,21.73
2023-04-13T06:29:38.835Z,19.75
2023-04-13T06:32:09.893Z,20.98
2023-04-13T06:34:37.935Z,20.90
2023-04-13T06:37:07.350Z,20.63
2023-04-13T06:39:44.147Z,20.80
2023-04-13T06:42:13.697Z,20.52
2023-04-13T06:45:01.942Z,19.20
2023-04-13T06:47:37.341Z,19.67
2023-04-13T06:50:06.845Z,20.85
2023-04-13T06:52:37.800Z,19.13
2023-04-13T06:55:05.953Z,19.05
2023-04-13T06:57:37.962Z,18.65
2023-04-13T07:00:15.429Z,17.42
2023-04-13T07:02:54.419Z,19.70
2023-04-13T07:05:22.740Z,18.05
2023-04-13T07:07:52.238Z,18.45
2023-04-13T07:10:21.324Z,17.60
2023-04-13T07:12:49.556Z,16.52
2023-04-13T07:15:21.219Z,18.33
2023-04-13T07:17:49.304Z,16.25
2023-04-13T07:20:17.696Z,16.10
2023-04-13T07:22:47.716Z,16.70
2023-04-13T07:25:15.357Z,17.70
2023-04-13T07:27:42.863Z,18.13
2023-04-13T07:30:10.630Z,17.02
2023-04-13T07:32:42.669Z,16.80
2023-04-13T07:35:11.167Z,16.58
2023-04-13T07:37:42.275Z,15.73
2023-04-13T07:40:11.829Z,16.10
2023-04-13T07:42:41.311Z,15.35
2023-04-13T07:45:10.977Z,16.33
2023-04-13T07:47:38.950Z,16.08
2023-04-13T07:50:09.701Z,15.30
2023-04-13T07:52:38.093Z,14.50
2023-04-13T07:55:07.172Z,15.07
2023-04-13T07:57:38.429Z,15.70
2023-04-13T08:00:08.345Z,15.32
2023-04-13T08:02:41.737Z,15.55
2023-04-13T08:07:46.425Z,14.60
2023-04-13T08:10:15.486Z,15.38
2023-04-13T08:12:43.801Z,15.02
2023-04-13T08:15:12.550Z,14.73
2023-04-13T08:17:40.064Z,19.52
2023-04-13T08:20:08.365Z,15.27
2023-04-13T08:22:36.877Z,14.23
2023-04-13T08:25:06.447Z,15.75
2023-04-13T08:27:34.647Z,15.13
2023-04-13T08:30:03.272Z,13.82
2023-04-13T08:32:41.647Z,16.50
2023-04-13T08:35:09.670Z,15.68
2023-04-13T08:37:39.543Z,15.07
2023-04-13T08:40:12.101Z,16.00
2023-04-13T08:42:41.515Z,16.35
2023-04-13T08:45:09.905Z,16.50
2023-04-13T08:47:41.370Z,16.23
2023-04-13T08:50:10.071Z,15.75
2023-04-13T08:52:41.038Z,16.92
2023-04-13T08:55:08.869Z,17.70
2023-04-13T08:57:38.965Z,17.73
2023-04-13T09:00:16.619Z,16.02
2023-04-13T09:03:03.069Z,17.48
2023-04-13T09:05:31.660Z,16.25
2023-04-13T09:08:06.854Z,17.92
2023-04-13T09:10:36.716Z,15.65
2023-04-13T09:13:04.745Z,15.43
2023-04-13T09:15:32.953Z,14.32
2023-04-13T09:18:13.672Z,15.10
2023-04-13T09:21:00.302Z,16.52
2023-04-13T09:23:28.001Z,15.88
2023-04-13T09:26:08.105Z,15.00
2023-04-13T09:28:46.856Z,15.45
2023-04-13T09:31:15.716Z,15.65
2023-04-13T09:33:50.513Z,17.70
2023-04-13T09:36:20.670Z,17.67
2023-04-13T09:38:52.825Z,16.23
2023-04-13T09:41:40.615Z,14.35
2023-04-13T09:44:18.738Z,13.93
2023-04-13T09:47:00.782Z,13.38
2023-04-13T09:49:41.928Z,14.68
2023-04-13T09:52:38.955Z,12.52
2023-04-13T09:55:16.828Z,13.98
2023-04-13T09:57:44.353Z,13.55
2023-04-13T10:00:20.454Z,11.20
2023-04-13T10:02:50.869Z,10.70
2023-04-13T10:05:19.596Z,9.20
2023-04-13T10:07:48.551Z,9.23
2023-04-13T10:10:17.039Z,8.90
2023-04-13T10:12:48.280Z,8.20
2023-04-13T10:15:38.030Z,7.97
2023-04-13T10:18:23.768Z,8.80
2023-04-13T10:20:52.610Z,8.52
2023-04-13T10:23:21.531Z,8.63
2023-04-13T10:25:57.650Z,9.10
2023-04-13T10:28:27.272Z,9.00
2023-04-13T10:30:54.822Z,9.68
2023-04-13T10:33:22.881Z,10.32
2023-04-13T10:35:58.000Z,9.70
2023-04-13T10:38:26.068Z,9.00
2023-04-13T10:40:53.837Z,9.05
2023-04-13T10:43:27.828Z,9.50
2023-04-13T10:46:13.851Z,9.52
2023-04-13T10:48:42.248Z,7.53
2023-04-13T10:51:09.704Z,7.18
2023-04-13T10:53:37.586Z,8.18
2023-04-13T10:56:19.191Z,6.32
2023-04-13T10:58:54.117Z,5.90
2023-04-13T11:01:22.640Z,4.70
2023-04-13T11:04:03.807Z,5.10
2023-04-13T11:06:38.097Z,4.38
2023-04-13T11:09:07.236Z,3.67
2023-04-13T11:11:37.149Z,3.63
2023-04-13T11:14:04.678Z,3.63
2023-04-13T11:16:32.046Z,3.53
2023-04-13T11:19:03.988Z,3.80
2023-04-13T11:21:31.873Z,3.30
2023-04-13T11:24:02.527Z,3.65
2023-04-13T11:26:42.233Z,3.58
2023-04-13T11:29:18.768Z,3.97
2023-04-13T11:31:46.821Z,4.22
2023-04-13T11:34:25.852Z,4.70
2023-04-13T11:37:05.174Z,3.85
2023-04-13T11:39:36.206Z,3.58
2023-04-13T11:42:09.456Z,3.92
2023-04-13T11:44:37.844Z,3.78
2023-04-13T11:47:06.553Z,3.65
2023-04-13T11:49:34.471Z,3.78
2023-04-13T11:52:02.888Z,2.22
2023-04-13T11:54:30.972Z,2.58
2023-04-13T11:56:58.775Z,1.95
2023-04-13T11:59:27.871Z,2.40
2023-04-13T12:02:02.324Z,2.40
2023-04-13T12:04:38.658Z,3.78
2023-04-13T12:07:12.697Z,3.65
2023-04-13T12:15:10.581Z,4.15
2023-04-13T12:17:49.497Z,3.20
2023-04-13T12:20:17.952Z,7.45
2023-04-13T12:22:57.514Z,2.67
2023-04-13T12:25:35.587Z,4.38
2023-04-13T12:28:04.172Z,3.08
2023-04-13T12:30:33.695Z,3.13
2023-04-13T12:33:01.179Z,2.97
2023-04-13T12:35:28.531Z,3.03
2023-04-13T12:37:55.936Z,2.72
2023-04-13T12:40:23.483Z,5.47
2023-04-13T12:42:51.598Z,5.40
2023-04-13T12:45:19.168Z,4.35
2023-04-13T12:47:46.684Z,3.45
2023-04-13T12:50:14.194Z,3.63
2023-04-13T12:52:42.973Z,2.00
2023-04-13T12:55:10.629Z,3.17
2023-04-13T12:57:39.691Z,2.75
2023-04-13T13:00:11.029Z,2.33
2023-04-13T13:02:38.858Z,2.40
2023-04-13T13:05:09.724Z,2.42
2023-04-13T13:07:37.319Z,2.80
2023-04-13T13:10:14.915Z,3.00
2023-04-13T13:12:53.569Z,2.80
2023-04-13T13:15:21.031Z,2.80
2023-04-13T13:17:48.433Z,2.40
2023-04-13T13:20:16.660Z,2.90
2023-04-13T13:22:44.129Z,3.13
2023-04-13T13:25:11.670Z,1.85
2023-04-13T13:30:10.112Z,2.35
2023-04-13T13:32:37.687Z,2.70
2023-04-13T13:35:08.578Z,2.30
2023-04-13T13:37:36.954Z,1.60
2023-04-13T13:40:12.946Z,2.10
2023-04-13T13:42:51.184Z,1.48
2023-04-13T13:45:23.294Z,1.13
2023-04-13T13:47:54.799Z,1.25
2023-04-13T13:50:48.543Z,2.55
2023-04-13T13:53:16.309Z,2.30
2023-04-13T13:55:43.673Z,2.58
2023-04-13T13:58:11.294Z,2.30
2023-04-13T14:00:38.987Z,2.53
2023-04-13T14:03:06.597Z,2.35
2023-04-13T14:05:34.273Z,1.92
2023-04-13T14:08:01.690Z,1.88
2023-04-13T14:10:29.138Z,1.77
2023-04-13T14:12:59.189Z,2.40
2023-04-13T14:15:26.711Z,2.03
2023-04-13T14:18:09.094Z,2.67
2023-04-13T14:20:39.604Z,1.90
2023-04-13T14:23:09.273Z,2.42
2023-04-13T14:25:38.600Z,1.60
2023-04-13T14:28:06.792Z,2.13
2023-04-13T14:30:34.667Z,2.45
2023-04-13T14:33:03.979Z,1.70
2023-04-13T14:35:31.706Z,3.88
2023-04-13T14:37:59.674Z,2.53
2023-04-13T14:40:27.637Z,1.58
2023-04-13T14:42:55.043Z,1.20
2023-04-13T14:45:22.449Z,1.20
2023-04-13T14:47:50.537Z,1.48
2023-04-13T14:50:18.359Z,1.23
2023-04-13T14:52:47.071Z,1.48
2023-04-13T14:55:15.105Z,0.80
2023-04-13T14:57:42.805Z,1.75
2023-04-13T15:00:26.444Z,1.20
2023-04-13T15:02:54.927Z,0.75
2023-04-13T15:05:23.237Z,1.05
2023-04-13T15:07:51.015Z,1.30
2023-04-13T15:10:19.286Z,0.80
2023-04-13T15:12:48.196Z,0.73
2023-04-13T15:15:15.878Z,1.10
2023-04-13T15:17:43.283Z,1.05
2023-04-13T15:20:12.122Z,1.05
2023-04-13T15:22:39.588Z,1.10
2023-04-13T15:25:07.359Z,1.60
2023-04-13T15:27:34.878Z,0.85
2023-04-13T15:30:03.616Z,1.85
2023-04-13T15:32:34.416Z,1.48
2023-04-13T15:35:02.309Z,0.88
2023-04-13T15:37:29.702Z,1.50
2023-04-13T15:39:57.146Z,1.15
2023-04-13T15:42:26.336Z,1.17
2023-04-13T15:44:55.213Z,1.17
2023-04-13T15:47:22.907Z,1.20
2023-04-13T15:49:50.427Z,1.27
2023-04-13T15:52:17.787Z,1.05
2023-04-13T15:54:45.269Z,1.25
2023-04-13T15:57:12.697Z,1.38
2023-04-13T15:59:40.206Z,1.02
2023-04-13T16:02:07.983Z,1.40
2023-04-13T16:04:35.630Z,1.17
2023-04-13T16:07:12.715Z,1.23
2023-04-13T16:09:43.928Z,1.45
2023-04-13T16:12:11.809Z,1.17
2023-04-13T16:14:41.899Z,1.10
2023-04-13T16:17:10.302Z,0.90
2023-04-13T16:19:38.128Z,1.38
2023-04-13T16:22:06.135Z,1.33
2023-04-13T16:24:33.936Z,0.80
2023-04-13T16:27:02.242Z,0.90
2023-04-13T16:29:29.997Z,1.27
2023-04-13T16:31:57.430Z,1.23
2023-04-13T16:34:27.967Z,1.05
2023-04-13T16:36:56.236Z,1.55
2023-04-13T16:39:23.780Z,1.30
2023-04-13T16:41:51.361Z,1.17
2023-04-13T16:44:18.773Z,1.70
2023-04-13T16:46:46.639Z,1.10
2023-04-13T16:49:14.187Z,1.17
2023-04-13T16:51:41.542Z,1.27
2023-04-13T16:54:11.716Z,1.95
2023-04-13T16:56:39.212Z,1.70
2023-04-13T16:59:06.758Z,1.83
2023-04-13T17:01:37.246Z,1.95
2023-04-13T17:04:06.218Z,2.00
2023-04-13T17:06:37.416Z,1.85
2023-04-13T17:09:08.283Z,1.83
2023-04-13T17:11:36.062Z,1.67
2023-04-13T17:14:03.538Z,2.30
2023-04-13T17:16:31.125Z,2.30
2023-04-13T17:18:58.663Z,1.95
2023-04-13T17:21:27.321Z,1.17
2023-04-13T17:23:54.675Z,1.10
2023-04-13T17:26:22.044Z,1.67
2023-04-13T17:28:49.451Z,1.40
2023-04-13T17:31:17.007Z,1.60
2023-04-13T17:33:45.093Z,1.50
2023-04-13T17:36:12.508Z,1.63
2023-04-13T17:38:39.917Z,1.30
2023-04-13T17:41:07.528Z,1.75
2023-04-13T17:43:34.917Z,1.92
2023-04-13T17:46:02.958Z,2.45
2023-04-13T17:48:30.515Z,1.80
2023-04-13T17:50:57.875Z,1.50
2023-04-13T17:53:26.147Z,1.70
2023-04-13T17:55:53.584Z,1.50
2023-04-13T17:58:21.427Z,1.38
2023-04-13T18:00:48.931Z,1.38
2023-04-13T18:03:16.553Z,1.10
2023-04-13T18:05:47.139Z,1.42
2023-04-13T18:08:14.628Z,1.25
2023-04-13T18:10:42.218Z,1.02
2023-04-13T18:13:09.825Z,1.42
2023-04-13T18:15:37.202Z,1.70
2023-04-13T18:18:04.775Z,2.00
2023-04-13T18:20:32.274Z,1.52
2023-04-13T18:22:59.735Z,1.73
2023-04-13T18:25:27.154Z,1.48
2023-04-13T18:27:54.564Z,2.00
2023-04-13T18:30:21.971Z,2.15
2023-04-13T18:32:52.135Z,2.20
2023-04-13T18:35:19.592Z,1.92
2023-04-13T18:37:47.577Z,2.60
2023-04-13T18:40:14.994Z,2.60
2023-04-13T18:42:42.554Z,2.35
2023-04-13T18:45:10.439Z,2.05
2023-04-13T18:47:37.861Z,1.30
2023-04-13T18:50:06.156Z,1.35
2023-04-13T18:52:33.672Z,1.00
2023-04-13T18:55:01.124Z,1.40
2023-04-13T18:57:28.609Z,1.20
2023-04-13T18:59:57.270Z,0.82
2023-04-13T19:02:24.911Z,1.00
2023-04-13T19:04:52.615Z,1.13
2023-04-13T19:07:20.195Z,1.23
2023-04-13T19:09:47.602Z,1.58
2023-04-13T19:12:14.954Z,1.10
2023-04-13T19:14:42.409Z,1.50
2023-04-13T19:17:09.762Z,1.20
2023-04-13T19:19:37.143Z,1.35
2023-04-13T19:22:04.497Z,1.10
2023-04-13T19:24:32.158Z,1.30
2023-04-13T19:26:59.540Z,0.98
2023-04-13T19:29:30.076Z,1.45
2023-04-13T19:31:57.621Z,1.20
2023-04-13T19:34:25.012Z,0.90
2023-04-13T19:36:52.412Z,1.10
2023-04-13T19:39:19.835Z,1.17
2023-04-13T19:41:47.173Z,1.77
2023-04-13T19:44:16.764Z,2.10
2023-04-13T19:46:44.265Z,1.20
2023-04-13T19:49:12.030Z,1.17
2023-04-13T19:51:39.953Z,1.40
2023-04-13T19:54:07.457Z,1.60
2023-04-13T19:56:34.966Z,1.50
2023-04-13T19:59:06.133Z,1.45
2023-04-13T20:01:34.529Z,1.15
2023-04-13T20:04:06.465Z,1.33
2023-04-13T20:06:34.738Z,1.25
2023-04-13T20:09:11.950Z,1.40
2023-04-13T20:11:41.760Z,1.15
2023-04-13T20:14:11.493Z,1.65
2023-04-13T20:16:39.289Z,1.20
2023-04-13T20:19:09.507Z,0.88
2023-04-13T20:21:37.442Z,1.48
2023-04-13T20:24:04.914Z,1.50
2023-04-13T20:26:32.361Z,1.60
2023-04-13T20:29:01.486Z,1.50
2023-04-13T20:31:31.795Z,1.77
2023-04-13T20:33:59.610Z,1.58
2023-04-13T20:36:27.286Z,1.90
2023-04-13T20:39:01.836Z,1.48
2023-04-13T20:41:32.093Z,2.00
2023-04-13T20:44:00.792Z,2.30
2023-04-13T20:46:35.123Z,1.80
2023-04-13T20:49:05.053Z,1.90
2023-04-13T20:51:33.717Z,2.05
2023-04-13T20:54:02.701Z,2.13
2023-04-13T20:56:30.907Z,2.25
2023-04-13T20:58:58.434Z,2.33
2023-04-13T21:01:26.325Z,2.10
2023-04-13T21:03:53.868Z,2.90
2023-04-13T21:06:22.878Z,2.95
2023-04-13T21:08:52.769Z,3.00
2023-04-13T21:11:21.292Z,3.45
2023-04-13T21:13:48.674Z,4.30
2023-04-13T21:16:16.124Z,4.05
2023-04-13T21:18:43.573Z,4.10
2023-04-13T21:21:11.151Z,3.85
2023-04-13T21:23:38.567Z,4.32
2023-04-13T21:26:07.445Z,4.32
2023-04-13T21:28:35.213Z,4.20
2023-04-13T21:31:02.621Z,4.40
2023-04-13T21:33:30.008Z,4.40
2023-04-13T21:35:57.317Z,4.05
2023-04-13T21:38:24.704Z,4.43
2023-04-13T21:40:52.066Z,4.20
2023-04-13T21:43:19.387Z,4.55
2023-04-13T21:45:46.876Z,4.75
2023-04-13T21:48:14.969Z,4.45
2023-04-13T21:50:42.350Z,4.35
2023-04-13T21:53:09.694Z,4.55
2023-04-13T21:55:37.078Z,5.00
2023-04-13T21:58:04.415Z,5.57
2023-04-13T22:00:31.919Z,5.30
2023-04-13T22:02:59.561Z,5.75
2023-04-13T22:05:27.236Z,5.50
2023-04-13T22:07:54.646Z,6.20
2023-04-13T22:10:22.086Z,5.75
2023-04-13T22:12:49.492Z,5.13
2023-04-13T22:15:16.964Z,5.03
2023-04-13T22:17:44.364Z,4.80
2023-04-13T22:20:12.261Z,4.80
2023-04-13T22:22:39.742Z,4.60
2023-04-13T22:25:07.332Z,4.38
2023-04-13T22:27:37.575Z,4.47
2023-04-13T22:30:06.472Z,3.60
2023-04-13T22:32:34.184Z,3.13
2023-04-13T22:35:01.688Z,3.63
2023-04-13T22:37:31.602Z,3.22
2023-04-13T22:40:00.891Z,3.33
2023-04-13T22:42:28.793Z,3.45
2023-04-13T22:44:56.268Z,3.75
2023-04-13T22:47:24.016Z,3.67
2023-04-13T22:49:51.467Z,3.40
2023-04-13T22:52:19.622Z,2.92
2023-04-13T22:54:47.492Z,3.15
2023-04-13T22:57:14.990Z,3.40
2023-04-13T22:59:42.363Z,3.92
2023-04-13T23:02:09.926Z,4.05
2023-04-13T23:04:37.778Z,4.13
2023-04-13T23:07:05.442Z,4.45
2023-04-13T23:09:32.894Z,4.88
2023-04-13T23:12:00.271Z,5.50
2023-04-13T23:14:27.643Z,5.13
2023-04-13T23:16:54.994Z,5.45
2023-04-13T23:19:22.433Z,5.75
2023-04-13T23:21:49.820Z,6.20
2023-04-13T23:24:17.197Z,8.23
2023-04-13T23:26:44.586Z,7.55
2023-04-13T23:29:12.006Z,6.78
2023-04-13T23:31:39.514Z,5.28
2023-04-13T23:34:06.902Z,4.25
2023-04-13T23:36:34.380Z,4.07
2023-04-13T23:39:01.991Z,3.72
2023-04-13T23:41:29.704Z,3.92
2023-04-13T23:43:57.079Z,3.35
2023-04-13T23:46:25.182Z,3.20
2023-04-13T23:48:52.526Z,3.80
2023-04-13T23:51:19.857Z,3.05
2023-04-13T23:53:47.283Z,3.50
2023-04-13T23:56:14.699Z,2.83
2023-04-13T23:58:42.100Z,3.20
